createdAt,value
2022-12-29T00:01:43.889Z,99955.61
2022-12-29T00:04:17.180Z,99954.62
2022-12-29T00:06:49.739Z,99952.69
2022-12-29T00:09:21.382Z,99956.98
2022-12-29T00:11:53.123Z,99956.79
2022-12-29T00:14:42.141Z,99952.25
2022-12-29T00:17:13.953Z,99949.17
2022-12-29T00:19:59.420Z,99948.58
2022-12-29T00:22:48.495Z,99948.77
2022-12-29T00:25:37.285Z,99947.27
2022-12-29T00:28:27.345Z,99945.61
2022-12-29T00:31:20.564Z,99942.23
2022-12-29T00:34:09.357Z,99938.59
2022-12-29T00:36:44.092Z,99941.12
2022-12-29T00:39:32.633Z,99942.29
2022-12-29T00:42:35.019Z,99940.80
2022-12-29T00:45:07.636Z,99935.13
2022-12-29T00:47:39.253Z,99933.17
2022-12-29T00:50:11.844Z,99937.20
2022-12-29T00:52:43.359Z,99933.42
2022-12-29T00:55:14.854Z,99927.69
2022-12-29T00:57:46.292Z,99921.33
2022-12-29T01:00:19.391Z,99921.95
2022-12-29T01:02:51.156Z,99923.70
2022-12-29T01:05:22.945Z,99922.19
2022-12-29T01:07:54.494Z,99918.77
2022-12-29T01:10:26.318Z,99914.67
2022-12-29T01:12:57.841Z,99914.98
2022-12-29T01:15:29.559Z,99912.38
2022-12-29T01:18:01.184Z,99913.16
2022-12-29T01:20:32.623Z,99903.29
2022-12-29T01:23:05.191Z,99901.52
2022-12-29T01:25:36.771Z,99887.46
2022-12-29T01:28:09.655Z,99886.70
2022-12-29T01:30:41.224Z,99884.38
2022-12-29T01:33:12.851Z,99879.67
2022-12-29T01:35:44.449Z,99879.21
2022-12-29T01:38:15.989Z,99883.60
2022-12-29T01:40:50.591Z,99884.02
2022-12-29T01:43:22.445Z,99880.54
2022-12-29T01:45:56.952Z,99876.59
2022-12-29T01:48:28.470Z,99880.95
2022-12-29T01:51:00.112Z,99878.13
2022-12-29T01:53:36.048Z,99881.51
2022-12-29T01:56:12.427Z,99878.16
2022-12-29T01:58:48.760Z,99876.06
2022-12-29T02:01:23.607Z,99885.10
2022-12-29T02:03:55.849Z,99880.54
2022-12-29T02:06:31.314Z,99879.66
2022-12-29T02:09:03.305Z,99876.25
2022-12-29T02:11:37.477Z,99875.06
2022-12-29T02:14:13.482Z,99879.64
2022-12-29T02:17:01.471Z,99879.15
2022-12-29T02:20:01.432Z,99876.60
2022-12-29T02:22:37.436Z,99876.94
2022-12-29T02:25:53.560Z,99879.92
2022-12-29T02:28:59.600Z,99878.09
2022-12-29T02:31:39.964Z,99874.77
2022-12-29T02:34:21.313Z,99871.87
2022-12-29T02:37:04.064Z,99856.36
2022-12-29T02:39:43.487Z,99850.50
2022-12-29T02:42:23.752Z,99852.86
2022-12-29T02:45:05.526Z,99843.67
2022-12-29T02:47:42.819Z,99818.73
2022-12-29T02:50:21.752Z,99794.70
2022-12-29T02:52:57.451Z,99810.95
2022-12-29T02:55:29.521Z,99812.64
2022-12-29T02:58:22.695Z,99816.96
2022-12-29T03:01:06.700Z,99816.38
2022-12-29T03:03:51.672Z,99831.25
2022-12-29T03:06:38.103Z,99846.56
2022-12-29T03:09:23.306Z,99846.63
2022-12-29T03:12:11.081Z,99827.20
2022-12-29T03:15:18.456Z,99813.33
2022-12-29T03:17:58.892Z,99803.66
2022-12-29T03:20:41.064Z,99814.66
2022-12-29T03:23:14.281Z,99817.95
2022-12-29T03:25:50.247Z,99814.67
2022-12-29T03:28:25.446Z,99813.94
2022-12-29T03:30:58.025Z,99805.17
2022-12-29T03:33:32.301Z,99804.52
2022-12-29T03:36:07.725Z,99794.15
2022-12-29T03:38:41.362Z,99804.48
2022-12-29T03:41:19.471Z,99793.30
2022-12-29T03:43:52.123Z,99783.10
2022-12-29T03:46:23.885Z,99783.59
2022-12-29T03:48:55.715Z,99781.50
2022-12-29T03:51:27.269Z,99781.98
2022-12-29T03:53:58.928Z,99787.21
2022-12-29T03:56:30.389Z,99783.91
2022-12-29T03:59:01.983Z,99783.64
2022-12-29T04:01:33.997Z,99778.34
2022-12-29T04:04:06.088Z,99784.98
2022-12-29T04:06:37.640Z,99776.34
2022-12-29T04:09:09.596Z,99768.53
2022-12-29T04:11:41.002Z,99760.63
2022-12-29T04:14:12.818Z,99763.02
2022-12-29T04:16:44.981Z,99758.05
2022-12-29T04:19:17.146Z,99760.91
2022-12-29T04:21:50.214Z,99763.66
2022-12-29T04:24:21.969Z,99757.73
2022-12-29T04:26:53.774Z,99744.49
2022-12-29T04:29:25.518Z,99741.58
2022-12-29T04:31:57.352Z,99731.21
2022-12-29T04:34:32.936Z,99728.82
2022-12-29T04:37:10.095Z,99723.61
2022-12-29T04:39:41.787Z,99724.71
2022-12-29T04:42:13.451Z,99727.60
2022-12-29T04:44:45.475Z,99728.64
2022-12-29T04:47:17.088Z,99725.33
2022-12-29T04:49:49.030Z,99717.94
2022-12-29T04:52:20.636Z,99716.46
2022-12-29T04:54:52.446Z,99717.09
2022-12-29T04:57:23.954Z,99719.56
2022-12-29T04:59:55.472Z,99718.23
2022-12-29T05:02:27.615Z,99716.12
2022-12-29T05:04:59.684Z,99712.79
2022-12-29T05:07:31.393Z,99708.64
2022-12-29T05:10:03.172Z,99708.09
2022-12-29T05:12:36.577Z,99706.73
2022-12-29T05:15:12.032Z,99699.58
2022-12-29T05:17:43.661Z,99695.86
2022-12-29T05:20:15.334Z,99693.23
2022-12-29T05:22:46.942Z,99682.42
2022-12-29T05:25:18.813Z,99679.80
2022-12-29T05:27:50.932Z,99678.83
2022-12-29T05:30:22.821Z,99683.21
2022-12-29T05:32:54.557Z,99684.73
2022-12-29T05:35:26.777Z,99688.77
2022-12-29T05:37:58.354Z,99685.23
2022-12-29T05:40:30.073Z,99683.64
2022-12-29T05:43:01.526Z,99684.59
2022-12-29T05:45:33.661Z,99681.48
2022-12-29T05:48:05.481Z,99675.63
2022-12-29T05:50:37.249Z,99677.77
2022-12-29T05:53:08.993Z,99671.87
2022-12-29T05:55:46.611Z,99677.41
2022-12-29T05:58:20.383Z,99681.78
2022-12-29T06:00:52.045Z,99700.55
2022-12-29T06:03:23.687Z,99705.23
2022-12-29T06:05:55.710Z,99701.81
2022-12-29T06:08:27.361Z,99698.70
2022-12-29T06:10:59.195Z,99697.95
2022-12-29T06:13:31.092Z,99693.94
2022-12-29T06:16:03.297Z,99690.83
2022-12-29T06:18:35.088Z,99690.86
2022-12-29T06:21:08.657Z,99686.77
2022-12-29T06:23:40.555Z,99693.85
2022-12-29T06:26:12.170Z,99697.44
2022-12-29T06:28:43.665Z,99703.27
2022-12-29T06:31:15.868Z,99706.94
2022-12-29T06:33:49.994Z,99705.26
2022-12-29T06:36:22.212Z,99704.34
2022-12-29T06:38:54.470Z,99696.12
2022-12-29T06:41:31.970Z,99692.75
2022-12-29T06:44:03.970Z,99688.48
2022-12-29T06:46:35.717Z,99684.35
2022-12-29T06:49:08.248Z,99683.25
2022-12-29T06:51:39.916Z,99681.16
2022-12-29T06:54:11.654Z,99683.56
2022-12-29T06:56:43.353Z,99684.71
2022-12-29T06:59:14.995Z,99687.36
2022-12-29T07:01:46.884Z,99689.02
2022-12-29T07:04:18.959Z,99688.72
2022-12-29T07:06:50.959Z,99680.67
2022-12-29T07:09:22.681Z,99678.38
2022-12-29T07:11:54.661Z,99676.36
2022-12-29T07:14:26.550Z,99678.54
2022-12-29T07:16:58.320Z,99679.15
2022-12-29T07:19:30.481Z,99683.01
2022-12-29T07:22:02.508Z,99682.80
2022-12-29T07:24:34.095Z,99688.69
2022-12-29T07:27:06.329Z,99688.18
2022-12-29T07:29:38.936Z,99694.20
2022-12-29T07:32:10.769Z,99691.96
2022-12-29T07:34:42.562Z,99688.42
2022-12-29T07:37:17.432Z,99692.30
2022-12-29T07:39:49.091Z,99687.02
2022-12-29T07:42:20.833Z,99685.05
2022-12-29T07:44:52.757Z,99673.59
2022-12-29T07:47:24.522Z,99673.23
2022-12-29T07:49:56.433Z,99671.57
2022-12-29T07:52:28.008Z,99669.27
2022-12-29T07:54:59.997Z,99669.86
2022-12-29T07:57:32.413Z,99673.10
2022-12-29T08:00:06.123Z,99673.21
2022-12-29T08:02:38.155Z,99672.30
2022-12-29T08:05:10.841Z,99676.61
2022-12-29T08:07:42.375Z,99678.48
2022-12-29T08:10:14.828Z,99681.60
2022-12-29T08:12:47.177Z,99690.68
2022-12-29T08:15:18.947Z,99692.36
2022-12-29T08:17:50.622Z,99684.64
2022-12-29T08:20:22.303Z,99692.93
2022-12-29T08:22:55.250Z,99688.07
2022-12-29T08:25:26.792Z,99683.66
2022-12-29T08:27:58.605Z,99685.47
2022-12-29T08:30:30.751Z,99685.50
2022-12-29T08:33:03.022Z,99695.30
2022-12-29T08:35:35.100Z,99697.61
2022-12-29T08:38:06.626Z,99698.48
2022-12-29T08:40:38.244Z,99694.86
2022-12-29T08:43:10.801Z,99696.73
2022-12-29T08:45:42.571Z,99697.79
2022-12-29T08:48:14.307Z,99696.95
2022-12-29T08:50:47.460Z,99695.69
2022-12-29T08:53:19.088Z,99690.11
2022-12-29T08:56:03.673Z,99696.02
2022-12-29T08:58:36.168Z,99691.04
2022-12-29T09:01:08.476Z,99696.73
2022-12-29T09:04:14.148Z,99695.77
2022-12-29T09:06:38.115Z,99687.98
2022-12-29T09:09:11.733Z,99683.98
2022-12-29T09:11:43.368Z,99681.94
2022-12-29T09:14:15.407Z,99682.21
2022-12-29T09:17:03.923Z,99688.67
2022-12-29T09:19:35.418Z,99687.63
2022-12-29T09:22:07.085Z,99685.32
2022-12-29T09:24:38.679Z,99687.42
2022-12-29T09:27:10.348Z,99689.35
2022-12-29T09:29:51.141Z,99678.27
2022-12-29T09:32:23.684Z,99676.28
2022-12-29T09:34:56.077Z,99671.95
2022-12-29T09:37:30.732Z,99663.90
2022-12-29T09:40:02.397Z,99660.50
2022-12-29T09:42:40.787Z,99663.91
2022-12-29T09:45:18.147Z,99670.95
2022-12-29T09:47:50.231Z,99664.70
2022-12-29T09:50:30.090Z,99663.73
2022-12-29T09:53:07.757Z,99663.71
2022-12-29T09:55:43.547Z,99658.46
2022-12-29T09:58:21.120Z,99656.00
2022-12-29T10:00:59.279Z,99648.26
2022-12-29T10:03:39.268Z,99649.67
2022-12-29T10:06:18.093Z,99647.77
2022-12-29T10:08:59.811Z,99647.16
2022-12-29T10:11:44.597Z,99650.62
2022-12-29T10:14:30.128Z,99643.83
2022-12-29T10:17:10.523Z,99643.91
2022-12-29T10:20:02.044Z,99639.42
2022-12-29T10:22:46.017Z,99640.79
2022-12-29T10:25:21.976Z,99636.92
2022-12-29T10:27:56.333Z,99635.70
2022-12-29T10:30:28.294Z,99629.98
2022-12-29T10:33:05.224Z,99631.31
2022-12-29T10:35:41.758Z,99631.41
2022-12-29T10:38:21.753Z,99632.79
2022-12-29T10:40:59.510Z,99634.64
2022-12-29T10:43:32.858Z,99637.04
2022-12-29T10:46:09.694Z,99633.81
2022-12-29T10:48:41.500Z,99629.95
2022-12-29T10:51:13.667Z,99633.80
2022-12-29T10:53:51.164Z,99633.95
2022-12-29T10:56:32.497Z,99630.98
2022-12-29T10:59:09.139Z,99628.92
2022-12-29T11:01:50.874Z,99623.19
2022-12-29T11:04:35.868Z,99614.88
2022-12-29T11:07:13.275Z,99615.80
2022-12-29T11:09:48.901Z,99612.39
2022-12-29T11:12:29.111Z,99615.64
2022-12-29T11:15:17.086Z,99611.70
2022-12-29T11:17:51.476Z,99609.88
2022-12-29T11:20:38.816Z,99608.52
2022-12-29T11:23:27.632Z,99609.24
2022-12-29T11:26:19.356Z,99606.42
2022-12-29T11:29:06.919Z,99606.15
2022-12-29T11:31:45.054Z,99597.48
2022-12-29T11:34:22.710Z,99598.66
2022-12-29T11:36:56.795Z,99596.79
2022-12-29T11:39:36.044Z,99597.27
2022-12-29T11:42:10.897Z,99600.20
2022-12-29T11:44:48.105Z,99596.20
2022-12-29T11:47:29.066Z,99599.85
2022-12-29T11:50:03.687Z,99595.69
2022-12-29T11:52:40.779Z,99592.90
2022-12-29T11:55:23.312Z,99583.54
2022-12-29T11:57:57.569Z,99581.08
2022-12-29T12:00:31.617Z,99583.51
2022-12-29T12:03:07.221Z,99584.55
2022-12-29T12:05:46.237Z,99585.98
2022-12-29T12:08:25.792Z,99588.77
2022-12-29T12:11:01.578Z,99586.30
2022-12-29T12:13:37.859Z,99582.83
2022-12-29T12:16:15.004Z,99583.45
2022-12-29T12:18:52.062Z,99577.84
2022-12-29T12:21:32.262Z,99572.96
2022-12-29T12:24:33.929Z,99566.01
2022-12-29T12:27:15.458Z,99558.45
2022-12-29T12:29:54.794Z,99556.77
2022-12-29T12:32:39.233Z,99558.27
2022-12-29T12:35:19.731Z,99558.25
2022-12-29T12:38:07.553Z,99558.30
2022-12-29T12:41:08.132Z,99558.23
2022-12-29T12:44:01.310Z,99559.73
2022-12-29T12:47:14.469Z,99549.66
2022-12-29T12:50:20.495Z,99555.11
2022-12-29T12:53:17.307Z,99556.81
2022-12-29T12:56:14.386Z,99556.16
2022-12-29T12:58:55.393Z,99557.36
2022-12-29T13:01:41.167Z,99560.10
2022-12-29T13:04:38.067Z,99560.59
2022-12-29T13:07:22.763Z,99557.82
2022-12-29T13:10:05.166Z,99554.48
2022-12-29T13:12:50.109Z,99553.52
2022-12-29T13:15:35.060Z,99559.20
2022-12-29T13:18:17.071Z,99559.21
2022-12-29T13:20:55.286Z,99563.88
2022-12-29T13:23:32.999Z,99569.33
2022-12-29T13:26:12.508Z,99571.42
2022-12-29T13:28:52.449Z,99565.21
2022-12-29T13:31:33.116Z,99568.81
2022-12-29T13:34:14.201Z,99569.02
2022-12-29T13:36:50.949Z,99570.38
2022-12-29T13:39:26.962Z,99575.11
2022-12-29T13:41:59.595Z,99580.45
2022-12-29T13:44:36.562Z,99584.04
2022-12-29T13:47:18.232Z,99581.45
2022-12-29T13:49:51.330Z,99584.48
2022-12-29T13:52:35.016Z,99578.88
2022-12-29T13:55:22.447Z,99583.81
2022-12-29T13:58:01.024Z,99581.52
2022-12-29T14:00:39.058Z,99576.81
2022-12-29T14:03:36.663Z,99574.50
2022-12-29T14:06:22.469Z,99576.63
2022-12-29T14:08:57.174Z,99575.02
2022-12-29T14:11:32.729Z,99569.23
2022-12-29T14:14:13.411Z,99570.98
2022-12-29T14:16:45.867Z,99568.23
2022-12-29T14:19:23.098Z,99572.21
2022-12-29T14:21:59.221Z,99573.42
2022-12-29T14:24:46.975Z,99576.55
2022-12-29T14:28:04.194Z,99573.70
2022-12-29T14:30:57.562Z,99579.65
2022-12-29T14:33:31.366Z,99583.02
2022-12-29T14:36:24.600Z,99586.40
2022-12-29T14:38:56.963Z,99585.89
2022-12-29T14:41:37.065Z,99583.92
2022-12-29T14:44:23.035Z,99583.02
2022-12-29T14:47:01.678Z,99585.30
2022-12-29T14:49:42.475Z,99582.91
2022-12-29T14:52:25.587Z,99579.77
2022-12-29T14:55:01.657Z,99582.39
2022-12-29T14:57:43.410Z,99580.88
2022-12-29T15:00:27.927Z,99581.84
2022-12-29T15:03:08.850Z,99588.57
2022-12-29T15:05:46.600Z,99592.92
2022-12-29T15:08:23.026Z,99595.21
2022-12-29T15:10:59.400Z,99593.19
2022-12-29T15:13:39.327Z,99590.85
2022-12-29T15:16:26.302Z,99591.00
2022-12-29T15:18:58.630Z,99586.95
2022-12-29T15:21:34.808Z,99585.77
2022-12-29T15:24:07.657Z,99585.84
2022-12-29T15:26:45.510Z,99583.40
2022-12-29T15:29:35.285Z,99581.83
2022-12-29T15:32:22.816Z,99581.05
2022-12-29T15:34:56.782Z,99579.09
2022-12-29T15:37:30.313Z,99579.89
2022-12-29T15:40:01.938Z,99580.23
2022-12-29T15:42:49.829Z,99575.48
2022-12-29T15:45:22.478Z,99572.67
2022-12-29T15:47:57.960Z,99567.41
2022-12-29T15:50:32.871Z,99572.33
2022-12-29T15:53:05.915Z,99574.73
2022-12-29T15:55:41.016Z,99573.09
2022-12-29T15:58:24.016Z,99572.64
2022-12-29T16:00:58.248Z,99574.01
2022-12-29T16:03:33.731Z,99573.28
2022-12-29T16:06:29.296Z,99574.85
2022-12-29T16:09:06.009Z,99575.96
2022-12-29T16:11:40.339Z,99579.22
2022-12-29T16:14:17.766Z,99587.52
2022-12-29T16:16:52.224Z,99592.69
2022-12-29T16:19:32.096Z,99594.52
2022-12-29T16:22:05.654Z,99594.48
2022-12-29T16:24:40.059Z,99596.46
2022-12-29T16:27:19.659Z,99600.31
2022-12-29T16:29:54.631Z,99597.61
2022-12-29T16:32:30.759Z,99598.90
2022-12-29T16:35:16.449Z,99600.05
2022-12-29T16:37:48.611Z,99604.36
2022-12-29T16:40:32.944Z,99605.46
2022-12-29T16:43:06.971Z,99603.33
2022-12-29T16:46:08.547Z,99600.85
2022-12-29T16:48:51.739Z,99609.70
2022-12-29T16:51:32.739Z,99608.34
2022-12-29T16:54:05.284Z,99608.52
2022-12-29T16:56:40.070Z,99609.42
2022-12-29T16:59:11.444Z,99611.38
2022-12-29T17:01:43.812Z,99607.77
2022-12-29T17:04:16.681Z,99609.30
2022-12-29T17:06:48.675Z,99613.73
2022-12-29T17:09:25.489Z,99615.23
2022-12-29T17:12:05.423Z,99616.32
2022-12-29T17:14:47.954Z,99613.21
2022-12-29T17:17:23.039Z,99612.52
2022-12-29T17:20:00.139Z,99613.33
2022-12-29T17:22:32.619Z,99614.48
2022-12-29T17:25:05.273Z,99611.94
2022-12-29T17:27:43.173Z,99615.93
2022-12-29T17:30:18.716Z,99613.41
2022-12-29T17:32:53.841Z,99611.45
2022-12-29T17:35:26.937Z,99610.34
2022-12-29T17:37:58.828Z,99611.23
2022-12-29T17:40:32.676Z,99607.48
2022-12-29T17:43:04.437Z,99610.98
2022-12-29T17:45:36.498Z,99610.14
2022-12-29T17:48:15.973Z,99618.57
2022-12-29T17:50:49.360Z,99621.37
2022-12-29T17:53:24.392Z,99618.27
2022-12-29T17:55:56.067Z,99613.31
2022-12-29T17:58:29.707Z,99622.59
2022-12-29T18:01:04.331Z,99620.83
2022-12-29T18:03:38.788Z,99620.89
2022-12-29T18:06:13.355Z,99623.10
2022-12-29T18:08:45.884Z,99626.02
2022-12-29T18:11:26.588Z,99626.86
2022-12-29T18:13:58.457Z,99630.08
2022-12-29T18:16:30.696Z,99629.77
2022-12-29T18:19:02.557Z,99627.30
2022-12-29T18:21:34.719Z,99623.96
2022-12-29T18:24:06.961Z,99621.30
2022-12-29T18:26:38.711Z,99624.16
2022-12-29T18:29:10.753Z,99621.92
2022-12-29T18:31:42.597Z,99626.23
2022-12-29T18:34:17.334Z,99624.80
2022-12-29T18:36:49.086Z,99625.15
2022-12-29T18:39:24.165Z,99623.86
2022-12-29T18:41:58.773Z,99625.14
2022-12-29T18:44:30.683Z,99627.55
2022-12-29T18:47:03.684Z,99626.73
2022-12-29T18:49:35.439Z,99627.02
2022-12-29T18:52:07.798Z,99623.71
2022-12-29T18:54:39.615Z,99623.27
2022-12-29T18:57:11.432Z,99625.61
2022-12-29T18:59:43.101Z,99625.04
2022-12-29T19:02:19.371Z,99623.92
2022-12-29T19:04:53.151Z,99619.58
2022-12-29T19:07:24.442Z,99620.48
2022-12-29T19:09:56.595Z,99618.69
2022-12-29T19:12:28.794Z,99618.66
2022-12-29T19:15:02.617Z,99619.81
2022-12-29T19:17:34.771Z,99612.73
2022-12-29T19:20:07.884Z,99618.89
2022-12-29T19:22:39.849Z,99619.67
2022-12-29T19:25:11.902Z,99618.30
2022-12-29T19:27:43.475Z,99622.27
2022-12-29T19:30:17.350Z,99624.70
2022-12-29T19:32:53.057Z,99627.92
2022-12-29T19:35:26.793Z,99624.71
2022-12-29T19:37:59.747Z,99628.49
2022-12-29T19:40:31.300Z,99630.11
2022-12-29T19:43:03.696Z,99632.93
2022-12-29T19:45:39.070Z,99631.41
2022-12-29T19:48:15.246Z,99637.03
2022-12-29T19:50:47.805Z,99638.81
2022-12-29T19:53:20.143Z,99637.55
2022-12-29T19:55:52.473Z,99635.75
2022-12-29T19:58:24.946Z,99638.19
2022-12-29T20:00:56.646Z,99637.64
2022-12-29T20:03:28.602Z,99633.11
2022-12-29T20:06:00.656Z,99630.83
2022-12-29T20:08:33.163Z,99627.25
2022-12-29T20:11:08.010Z,99624.61
2022-12-29T20:13:41.062Z,99632.85
2022-12-29T20:16:15.816Z,99637.70
2022-12-29T20:18:45.741Z,99639.98
2022-12-29T20:21:19.672Z,99635.99
2022-12-29T20:23:52.662Z,99639.30
2022-12-29T20:26:27.280Z,99635.27
2022-12-29T20:29:00.527Z,99636.13
2022-12-29T20:31:37.419Z,99633.08
2022-12-29T20:34:10.749Z,99625.45
2022-12-29T20:36:48.520Z,99628.20
2022-12-29T20:39:22.936Z,99627.52
2022-12-29T20:41:54.953Z,99626.80
2022-12-29T20:44:27.048Z,99627.81
2022-12-29T20:46:59.280Z,99628.20
2022-12-29T20:49:32.038Z,99637.36
2022-12-29T20:52:06.990Z,99638.45
2022-12-29T20:54:39.928Z,99640.56
2022-12-29T20:57:11.847Z,99641.79
2022-12-29T20:59:45.077Z,99646.54
2022-12-29T21:02:22.854Z,99648.85
2022-12-29T21:05:22.834Z,99650.36
2022-12-29T21:07:46.329Z,99647.73
2022-12-29T21:10:18.605Z,99648.55
2022-12-29T21:12:50.511Z,99646.10
2022-12-29T21:15:22.935Z,99647.66
2022-12-29T21:17:54.797Z,99645.40
2022-12-29T21:20:32.465Z,99642.50
2022-12-29T21:23:08.570Z,99644.27
2022-12-29T21:25:45.343Z,99647.09
2022-12-29T21:28:16.997Z,99649.40
2022-12-29T21:30:50.305Z,99653.60
2022-12-29T21:33:24.125Z,99652.27
2022-12-29T21:35:55.910Z,99657.30
2022-12-29T21:38:36.143Z,99655.79
2022-12-29T21:41:13.303Z,99656.86
2022-12-29T21:44:06.517Z,99655.97
2022-12-29T21:46:40.340Z,99653.40
2022-12-29T21:49:15.740Z,99655.03
2022-12-29T21:51:54.322Z,99648.38
2022-12-29T21:54:45.921Z,99651.07
2022-12-29T21:57:39.512Z,99655.41
2022-12-29T22:00:31.362Z,99658.81
2022-12-29T22:03:23.830Z,99665.67
2022-12-29T22:06:13.354Z,99671.87
2022-12-29T22:09:02.314Z,99670.77
2022-12-29T22:11:52.158Z,99669.79
2022-12-29T22:14:24.077Z,99671.35
2022-12-29T22:16:55.626Z,99665.03
2022-12-29T22:19:27.290Z,99667.25
2022-12-29T22:21:58.863Z,99675.58
2022-12-29T22:24:30.614Z,99674.13
2022-12-29T22:27:02.096Z,99677.30
2022-12-29T22:29:33.692Z,99680.44
2022-12-29T22:32:05.468Z,99682.86
2022-12-29T22:34:37.165Z,99682.84
2022-12-29T22:37:08.992Z,99680.90
2022-12-29T22:39:40.490Z,99687.20
2022-12-29T22:42:12.119Z,99691.09
2022-12-29T22:44:44.244Z,99694.70
2022-12-29T22:47:15.741Z,99689.23
2022-12-29T22:49:47.428Z,99694.77
2022-12-29T22:52:18.987Z,99696.93
2022-12-29T22:54:50.600Z,99697.98
2022-12-29T22:57:22.106Z,99695.33
2022-12-29T22:59:53.660Z,99699.29
2022-12-29T23:02:25.339Z,99701.08
2022-12-29T23:05:03.566Z,99698.36
2022-12-29T23:07:36.442Z,99702.53
2022-12-29T23:10:09.244Z,99704.16
2022-12-29T23:12:40.773Z,99696.76
2022-12-29T23:15:13.868Z,99700.37
2022-12-29T23:17:45.367Z,99704.02
2022-12-29T23:20:16.930Z,99700.22
2022-12-29T23:22:48.417Z,99701.92
2022-12-29T23:25:20.224Z,99702.52
2022-12-29T23:27:51.704Z,99703.56
2022-12-29T23:30:23.240Z,99705.71
2022-12-29T23:32:54.716Z,99702.38
2022-12-29T23:35:26.203Z,99704.34
2022-12-29T23:37:57.606Z,99703.38
2022-12-29T23:40:29.101Z,99704.71
2022-12-29T23:43:00.517Z,99700.71
2022-12-29T23:45:32.590Z,99707.63
2022-12-29T23:48:04.056Z,99704.02
2022-12-29T23:50:35.950Z,99707.71
2022-12-29T23:53:07.498Z,99712.27
2022-12-29T23:55:40.571Z,99707.23
2022-12-29T23:58:12.289Z,99700.18
